Time;durP1;ratioP1;P1;durP2;ratioP2;P2;SDS_P1;SDS_P2;PMS_P1;PMS_P2;Temp;Humidity;BMP_temperature;BMP_pressure;BME280_temperature;BME280_humidity;BME280_pressure;Samples;Min_cycle;Max_cycle;Signal;HPM_P1;HPM_P2
2023/05/19 00:00:52;;;;;;;;;;;9.50;99.90;;;;;;5054618;28;19917;-61
2023/05/19 00:03:20;;;;;;;;;;;9.50;99.90;;;;;;5054609;28;19924;-60
2023/05/19 00:05:47;;;;;;;;;;;9.50;99.90;;;;;;5052582;28;20007;-60
2023/05/19 00:08:15;;;;;;;;;;;9.50;99.90;;;;;;5052313;28;19921;-60
2023/05/19 00:10:40;;;;;;;;;;;9.40;99.90;;;;;;5053460;28;19917;-60
2023/05/19 00:13:06;;;;;;;;;;;9.40;99.90;;;;;;5053370;28;19917;-60
2023/05/19 00:15:31;;;;;;;;;;;9.40;99.90;;;;;;5053607;28;19917;-60
2023/05/19 00:17:57;;;;;;;;;;;9.30;99.90;;;;;;5052490;28;19963;-60
2023/05/19 00:20:23;;;;;;;;;;;9.30;99.90;;;;;;5052106;28;19927;-60
2023/05/19 00:22:49;;;;;;;;;;;9.30;99.90;;;;;;5053003;28;19916;-59
2023/05/19 00:25:15;;;;;;;;;;;9.30;99.90;;;;;;5053087;28;19982;-60
2023/05/19 00:27:40;;;;;;;;;;;9.30;99.90;;;;;;5051277;28;20429;-59
2023/05/19 00:30:06;;;;;;;;;;;9.30;99.90;;;;;;5053165;28;20284;-60
2023/05/19 00:32:32;;;;;;;;;;;9.30;99.90;;;;;;5051890;28;19931;-59
2023/05/19 00:34:58;;;;;;;;;;;9.30;99.90;;;;;;5052136;28;19924;-60
2023/05/19 00:37:24;;;;;;;;;;;9.30;99.90;;;;;;5052784;28;19924;-60
2023/05/19 00:39:49;;;;;;;;;;;9.30;99.90;;;;;;5052944;28;19920;-60
2023/05/19 00:42:15;;;;;;;;;;;9.20;99.90;;;;;;5053029;28;20073;-59
2023/05/19 00:44:41;;;;;;;;;;;9.20;99.90;;;;;;5052722;28;19921;-60
2023/05/19 00:47:07;;;;;;;;;;;9.20;99.90;;;;;;5052879;28;20011;-59
2023/05/19 00:49:32;;;;;;;;;;;9.20;99.90;;;;;;5052009;28;19920;-60
2023/05/19 00:51:59;;;;;;;;;;;9.20;99.90;;;;;;5052086;28;19920;-60
2023/05/19 00:54:25;;;;;;;;;;;9.20;99.90;;;;;;5048337;28;19924;-57
2023/05/19 00:56:52;;;;;;;;;;;9.10;99.90;;;;;;5053097;28;19916;-59
2023/05/19 00:59:17;;;;;;;;;;;9.10;99.90;;;;;;5051668;28;19920;-58
2023/05/19 01:01:44;;;;;;;;;;;9.10;99.90;;;;;;5051830;28;19943;-59
2023/05/19 01:04:10;;;;;;;;;;;9.00;99.90;;;;;;5051070;28;20266;-59
2023/05/19 01:06:38;;;;;;;;;;;8.90;99.90;;;;;;5053001;28;19925;-60
2023/05/19 01:09:04;;;;;;;;;;;8.90;99.90;;;;;;5052934;28;19924;-57
2023/05/19 01:11:29;;;;;;;;;;;8.80;99.90;;;;;;5052395;28;19920;-54
2023/05/19 01:13:55;;;;;;;;;;;8.80;99.90;;;;;;5052217;28;19924;-55
2023/05/19 01:16:25;;;;;;;;;;;8.70;99.90;;;;;;5051951;28;19996;-58
2023/05/19 01:18:56;;;;;;;;;;;8.70;99.90;;;;;;5050862;28;20297;-60
2023/05/19 01:21:22;;;;;;;;;;;8.60;99.90;;;;;;5052378;28;19917;-59
2023/05/19 01:23:48;;;;;;;;;;;8.60;99.90;;;;;;5050621;28;20270;-55
2023/05/19 01:26:13;;;;;;;;;;;8.50;99.90;;;;;;5051851;28;20011;-59
2023/05/19 01:28:57;;;;;;;;;;;8.40;99.90;;;;;;5050820;28;19940;-59
2023/05/19 01:31:24;;;;;;;;;;;8.30;99.90;;;;;;5051917;28;20014;-59
2023/05/19 01:33:51;;;;;;;;;;;8.30;99.90;;;;;;5052027;28;20460;-57
2023/05/19 01:36:18;;;;;;;;;;;8.30;99.90;;;;;;5051839;28;19943;-59
2023/05/19 01:38:44;;;;;;;;;;;8.20;99.90;;;;;;5050695;28;19925;-59
2023/05/19 01:41:10;;;;;;;;;;;8.20;99.90;;;;;;5051566;28;19995;-59
2023/05/19 01:43:36;;;;;;;;;;;8.10;99.90;;;;;;5051495;28;19995;-57
2023/05/19 01:46:01;;;;;;;;;;;8.00;99.90;;;;;;5051301;28;19971;-59
2023/05/19 01:48:28;;;;;;;;;;;8.00;99.90;;;;;;5050441;28;20007;-57
2023/05/19 01:50:56;;;;;;;;;;;8.00;99.90;;;;;;5051792;28;20400;-56
2023/05/19 01:53:22;;;;;;;;;;;7.90;99.90;;;;;;5051649;28;19920;-60
2023/05/19 01:55:50;;;;;;;;;;;7.90;99.90;;;;;;5051488;28;20354;-60
2023/05/19 01:58:19;;;;;;;;;;;7.80;99.90;;;;;;5049665;28;19920;-59
2023/05/19 02:00:52;;;;;;;;;;;7.80;99.90;;;;;;5041975;28;20002;-59
2023/05/19 02:03:25;;;;;;;;;;;7.80;99.90;;;;;;5050290;28;19917;-58
2023/05/19 02:05:58;;;;;;;;;;;7.80;99.90;;;;;;5050938;28;19916;-59
2023/05/19 02:08:32;;;;;;;;;;;7.70;99.90;;;;;;5050132;28;19947;-59
2023/05/19 02:11:13;;;;;;;;;;;7.70;99.90;;;;;;5049106;28;20003;-60
2023/05/19 02:13:42;;;;;;;;;;;7.70;99.90;;;;;;5050880;28;20290;-59
2023/05/19 02:16:09;;;;;;;;;;;7.70;99.90;;;;;;5050484;28;20401;-56
2023/05/19 02:18:35;;;;;;;;;;;7.70;99.90;;;;;;5050226;28;19921;-60
2023/05/19 02:21:01;;;;;;;;;;;7.70;99.90;;;;;;5050999;28;19971;-59
2023/05/19 02:23:26;;;;;;;;;;;7.70;99.90;;;;;;5049615;28;19916;-61
2023/05/19 02:25:52;;;;;;;;;;;7.60;99.90;;;;;;5050495;28;19917;-59
2023/05/19 02:28:17;;;;;;;;;;;7.60;99.90;;;;;;5049629;28;19963;-57
2023/05/19 02:30:43;;;;;;;;;;;7.60;99.90;;;;;;5051454;28;19920;-59
2023/05/19 02:33:10;;;;;;;;;;;7.60;99.90;;;;;;5050388;28;20011;-60
2023/05/19 02:35:35;;;;;;;;;;;7.60;99.90;;;;;;5051174;28;19921;-57
2023/05/19 02:38:01;;;;;;;;;;;7.60;99.90;;;;;;5049929;28;20378;-60
2023/05/19 02:40:26;;;;;;;;;;;7.60;99.90;;;;;;5057655;28;19917;-55
2023/05/19 02:42:52;;;;;;;;;;;7.60;99.90;;;;;;5054608;28;19920;-56
2023/05/19 02:45:18;;;;;;;;;;;7.60;99.90;;;;;;5050643;28;20293;-58
2023/05/19 02:47:43;;;;;;;;;;;7.60;99.90;;;;;;5049576;28;19920;-59
2023/05/19 02:50:09;;;;;;;;;;;7.70;99.90;;;;;;5050903;28;19917;-56
2023/05/19 02:52:34;;;;;;;;;;;7.60;99.90;;;;;;5050264;28;20017;-56
2023/05/19 02:55:00;;;;;;;;;;;7.60;99.90;;;;;;5050071;28;19917;-57
2023/05/19 02:57:25;;;;;;;;;;;7.60;99.90;;;;;;5049568;28;19921;-59
2023/05/19 02:59:51;;;;;;;;;;;7.60;99.90;;;;;;5050583;28;19916;-53
2023/05/19 03:02:16;;;;;;;;;;;7.60;99.90;;;;;;5050368;28;19921;-56
2023/05/19 03:04:42;;;;;;;;;;;7.70;99.90;;;;;;5049153;28;20119;-57
2023/05/19 03:07:09;;;;;;;;;;;7.70;99.90;;;;;;5049573;28;19923;-60
2023/05/19 03:09:37;;;;;;;;;;;7.70;99.90;;;;;;5049597;28;19991;-61
2023/05/19 03:12:03;;;;;;;;;;;7.70;99.90;;;;;;5050403;28;19921;-60
2023/05/19 03:14:29;;;;;;;;;;;7.60;99.90;;;;;;5050140;28;19916;-60
2023/05/19 03:16:58;;;;;;;;;;;7.60;99.90;;;;;;5050125;28;20305;-58
2023/05/19 03:19:24;;;;;;;;;;;7.60;99.90;;;;;;5029372;28;19963;-57
2023/05/19 03:21:49;;;;;;;;;;;7.60;99.90;;;;;;5032892;28;20787;-60
2023/05/19 03:24:15;;;;;;;;;;;7.60;99.90;;;;;;5048996;28;20305;-60
2023/05/19 03:26:40;;;;;;;;;;;7.60;99.90;;;;;;5050359;28;20393;-57
2023/05/19 03:29:06;;;;;;;;;;;7.60;99.90;;;;;;5048666;28;19963;-60
2023/05/19 03:31:32;;;;;;;;;;;7.60;99.90;;;;;;5050292;28;19916;-57
2023/05/19 03:33:57;;;;;;;;;;;7.60;99.90;;;;;;5049779;28;19917;-60
2023/05/19 03:36:23;;;;;;;;;;;7.50;99.90;;;;;;5049225;28;19923;-58
2023/05/19 03:38:48;;;;;;;;;;;7.40;99.90;;;;;;5048787;28;20300;-60
2023/05/19 03:41:14;;;;;;;;;;;7.40;99.90;;;;;;5050206;28;19970;-59
2023/05/19 03:43:40;;;;;;;;;;;7.40;99.90;;;;;;5049476;28;20335;-58
2023/05/19 03:46:05;;;;;;;;;;;7.40;99.90;;;;;;5050084;28;20159;-59
2023/05/19 03:48:31;;;;;;;;;;;7.30;99.90;;;;;;5048782;28;19924;-61
2023/05/19 03:50:56;;;;;;;;;;;7.30;99.90;;;;;;5049704;28;20305;-60
2023/05/19 03:53:22;;;;;;;;;;;7.30;99.90;;;;;;5049183;28;20062;-59
2023/05/19 03:55:49;;;;;;;;;;;7.20;99.90;;;;;;5049993;28;19927;-57
2023/05/19 03:58:14;;;;;;;;;;;7.10;99.90;;;;;;5046820;28;19920;-60
2023/05/19 04:00:40;;;;;;;;;;;7.00;99.90;;;;;;5050020;28;19923;-60
2023/05/19 04:03:06;;;;;;;;;;;7.00;99.90;;;;;;5049175;28;20396;-58
2023/05/19 04:05:33;;;;;;;;;;;7.00;99.90;;;;;;5049321;28;19924;-58
2023/05/19 04:07:58;;;;;;;;;;;7.10;99.90;;;;;;5049031;28;20328;-59
2023/05/19 04:10:24;;;;;;;;;;;7.10;99.90;;;;;;5049696;28;19925;-60
2023/05/19 04:12:49;;;;;;;;;;;7.10;99.90;;;;;;5049483;28;19916;-59
2023/05/19 04:15:15;;;;;;;;;;;7.10;99.90;;;;;;5049497;28;20389;-59
2023/05/19 04:17:41;;;;;;;;;;;7.20;99.90;;;;;;5048638;28;19921;-59
2023/05/19 04:20:06;;;;;;;;;;;7.20;99.90;;;;;;5048978;28;19924;-60
2023/05/19 04:22:32;;;;;;;;;;;7.20;99.90;;;;;;5045352;28;19928;-62
2023/05/19 04:24:58;;;;;;;;;;;7.30;99.90;;;;;;5040438;28;19917;-60
2023/05/19 04:27:26;;;;;;;;;;;7.30;99.90;;;;;;5037233;28;19921;-61
2023/05/19 04:29:53;;;;;;;;;;;7.30;99.90;;;;;;5048932;28;19923;-60
2023/05/19 04:32:19;;;;;;;;;;;7.40;99.90;;;;;;5049418;28;19963;-60
2023/05/19 04:34:45;;;;;;;;;;;7.40;99.90;;;;;;5048556;28;19959;-60
2023/05/19 04:37:11;;;;;;;;;;;7.40;99.90;;;;;;5053035;28;19924;-61
2023/05/19 04:39:44;;;;;;;;;;;7.50;99.90;;;;;;5048952;28;19971;-61
2023/05/19 04:42:10;;;;;;;;;;;7.50;99.90;;;;;;5053443;28;19917;-58
2023/05/19 04:44:36;;;;;;;;;;;7.60;99.90;;;;;;5052565;28;20423;-60
2023/05/19 04:47:05;;;;;;;;;;;7.60;99.90;;;;;;5051823;28;19920;-60
2023/05/19 04:49:31;;;;;;;;;;;7.70;99.90;;;;;;5051610;28;19916;-60
2023/05/19 04:51:56;;;;;;;;;;;7.80;99.90;;;;;;5053321;28;20526;-54
2023/05/19 04:54:22;;;;;;;;;;;7.90;99.90;;;;;;5052546;28;19970;-53
2023/05/19 04:56:47;;;;;;;;;;;8.00;99.90;;;;;;5051798;28;20408;-56
2023/05/19 04:59:13;;;;;;;;;;;8.10;99.90;;;;;;5051552;28;20393;-56
2023/05/19 05:01:39;;;;;;;;;;;8.10;99.90;;;;;;5052704;28;20377;-57
2023/05/19 05:04:04;;;;;;;;;;;8.20;99.90;;;;;;5051601;28;19924;-55
2023/05/19 05:06:30;;;;;;;;;;;8.40;99.90;;;;;;5052866;28;19924;-59
2023/05/19 05:08:56;;;;;;;;;;;8.50;99.90;;;;;;5051096;28;19967;-56
2023/05/19 05:11:21;;;;;;;;;;;8.60;99.90;;;;;;5053237;28;19920;-60
2023/05/19 05:13:47;;;;;;;;;;;8.80;99.90;;;;;;5051801;28;19920;-55
2023/05/19 05:16:13;;;;;;;;;;;8.90;99.90;;;;;;5052405;28;19925;-59
2023/05/19 05:18:38;;;;;;;;;;;9.00;99.90;;;;;;5050770;28;19924;-56
2023/05/19 05:21:05;;;;;;;;;;;9.20;99.90;;;;;;5053883;28;20468;-55
2023/05/19 05:23:30;;;;;;;;;;;9.30;99.90;;;;;;5057993;28;20289;-53
2023/05/19 05:25:56;;;;;;;;;;;9.40;99.90;;;;;;5055234;28;19916;-56
2023/05/19 05:28:22;;;;;;;;;;;9.50;99.90;;;;;;5051355;28;20470;-59
2023/05/19 05:30:47;;;;;;;;;;;9.60;99.90;;;;;;5050524;28;19916;-57
2023/05/19 05:33:13;;;;;;;;;;;9.70;99.90;;;;;;5052010;28;19925;-56
2023/05/19 05:35:39;;;;;;;;;;;9.80;99.90;;;;;;5051328;28;19916;-54
2023/05/19 05:38:05;;;;;;;;;;;9.80;99.90;;;;;;5051006;28;19927;-56
2023/05/19 05:40:31;;;;;;;;;;;9.80;99.90;;;;;;5051770;28;19924;-56
2023/05/19 05:42:57;;;;;;;;;;;9.90;99.90;;;;;;5052126;28;19916;-59
2023/05/19 05:45:23;;;;;;;;;;;9.90;99.90;;;;;;5051268;28;19920;-56
2023/05/19 05:47:49;;;;;;;;;;;9.90;99.90;;;;;;5049838;28;19920;-56
2023/05/19 05:50:15;;;;;;;;;;;10.00;99.90;;;;;;5051963;28;19956;-57
2023/05/19 05:52:43;;;;;;;;;;;10.10;99.90;;;;;;5051897;28;19963;-55
2023/05/19 05:55:09;;;;;;;;;;;10.20;99.90;;;;;;5051291;28;19917;-56
2023/05/19 05:57:35;;;;;;;;;;;10.30;99.90;;;;;;5050316;28;20373;-56
2023/05/19 06:00:01;;;;;;;;;;;10.50;99.90;;;;;;5049627;28;20351;-59
2023/05/19 06:02:27;;;;;;;;;;;10.60;99.90;;;;;;5040943;28;19920;-54
2023/05/19 06:04:53;;;;;;;;;;;10.70;99.90;;;;;;5051112;28;20003;-59
2023/05/19 06:07:18;;;;;;;;;;;10.80;99.90;;;;;;5051825;28;20051;-54
2023/05/19 06:09:44;;;;;;;;;;;11.00;99.90;;;;;;5049817;28;19917;-57
2023/05/19 06:12:10;;;;;;;;;;;11.10;99.90;;;;;;5050829;28;19917;-58
2023/05/19 06:14:35;;;;;;;;;;;11.20;99.90;;;;;;5050311;28;19916;-60
2023/05/19 06:17:01;;;;;;;;;;;11.40;99.90;;;;;;5050741;28;20199;-59
2023/05/19 06:19:27;;;;;;;;;;;11.50;99.90;;;;;;5049759;28;20320;-57
2023/05/19 06:21:52;;;;;;;;;;;11.60;99.90;;;;;;5051073;28;19954;-56
2023/05/19 06:24:18;;;;;;;;;;;11.80;99.90;;;;;;5050559;28;20685;-59
2023/05/19 06:26:43;;;;;;;;;;;11.80;99.90;;;;;;5036998;28;20101;-56
2023/05/19 06:29:09;;;;;;;;;;;11.90;99.90;;;;;;5048988;28;20297;-57
2023/05/19 06:31:34;;;;;;;;;;;11.90;99.90;;;;;;5049972;28;19978;-57
2023/05/19 06:34:00;;;;;;;;;;;12.00;99.90;;;;;;5049599;28;20718;-58
2023/05/19 06:36:25;;;;;;;;;;;12.10;99.90;;;;;;5049682;28;19917;-59
2023/05/19 06:38:51;;;;;;;;;;;12.10;99.90;;;;;;5034807;28;19921;-60
2023/05/19 06:41:16;;;;;;;;;;;12.20;99.90;;;;;;5049615;28;19932;-59
2023/05/19 06:43:42;;;;;;;;;;;12.30;99.90;;;;;;5039022;28;20372;-61
2023/05/19 06:46:07;;;;;;;;;;;12.40;99.90;;;;;;5050665;28;19971;-56
2023/05/19 06:48:33;;;;;;;;;;;12.40;99.90;;;;;;5049627;28;19920;-57
2023/05/19 06:50:58;;;;;;;;;;;12.60;99.90;;;;;;5048725;28;19936;-59
2023/05/19 06:53:24;;;;;;;;;;;12.60;99.90;;;;;;5047910;28;20383;-57
2023/05/19 06:55:49;;;;;;;;;;;12.70;99.90;;;;;;5050706;28;20007;-59
2023/05/19 06:58:15;;;;;;;;;;;12.80;99.90;;;;;;5048473;28;19921;-60
2023/05/19 07:00:42;;;;;;;;;;;12.90;99.90;;;;;;5049610;28;20316;-61
2023/05/19 07:03:07;;;;;;;;;;;13.00;99.90;;;;;;5048686;28;20343;-60
2023/05/19 07:05:33;;;;;;;;;;;13.10;99.90;;;;;;5050144;28;19920;-60
2023/05/19 07:07:58;;;;;;;;;;;13.20;99.90;;;;;;5049023;28;19920;-60
2023/05/19 07:10:24;;;;;;;;;;;13.20;99.90;;;;;;5050220;28;19917;-60
2023/05/19 07:12:49;;;;;;;;;;;13.30;99.90;;;;;;5050007;28;19927;-58
2023/05/19 07:15:15;;;;;;;;;;;13.40;99.90;;;;;;5049319;28;19974;-57
2023/05/19 07:17:40;;;;;;;;;;;13.40;99.90;;;;;;5048724;28;19925;-60
2023/05/19 07:20:08;;;;;;;;;;;13.60;99.90;;;;;;5049920;28;19916;-58
2023/05/19 07:22:34;;;;;;;;;;;13.60;99.90;;;;;;5050132;28;20015;-59
2023/05/19 07:25:00;;;;;;;;;;;13.70;99.90;;;;;;5049359;28;20393;-59
2023/05/19 07:27:25;;;;;;;;;;;13.80;99.90;;;;;;5048679;28;19967;-60
2023/05/19 07:29:51;;;;;;;;;;;13.80;99.90;;;;;;5048885;28;19920;-57
2023/05/19 07:32:16;;;;;;;;;;;14.00;99.90;;;;;;5049126;28;19971;-59
2023/05/19 07:34:42;;;;;;;;;;;14.00;99.90;;;;;;5049631;28;19974;-61
2023/05/19 07:37:07;;;;;;;;;;;14.10;99.90;;;;;;5048156;28;19943;-60
2023/05/19 07:39:34;;;;;;;;;;;14.30;99.90;;;;;;5048728;28;20531;-60
2023/05/19 07:41:59;;;;;;;;;;;14.40;99.90;;;;;;5050252;28;19920;-58
2023/05/19 07:44:25;;;;;;;;;;;14.60;99.90;;;;;;5027834;28;20591;-59
2023/05/19 07:46:51;;;;;;;;;;;14.70;99.90;;;;;;5036946;28;20007;-60
2023/05/19 07:49:17;;;;;;;;;;;14.90;99.90;;;;;;5046555;28;19971;-57
2023/05/19 07:51:43;;;;;;;;;;;15.00;99.90;;;;;;5034250;28;19920;-60
2023/05/19 07:54:08;;;;;;;;;;;15.20;99.90;;;;;;5044907;28;19916;-61
2023/05/19 07:56:34;;;;;;;;;;;15.30;99.90;;;;;;5048817;28;19931;-60
2023/05/19 07:59:00;;;;;;;;;;;15.40;99.90;;;;;;5048250;28;19950;-60
2023/05/19 08:01:25;;;;;;;;;;;15.50;99.60;;;;;;5053538;28;19920;-57
2023/05/19 08:03:51;;;;;;;;;;;15.60;99.70;;;;;;5055212;28;19924;-56
2023/05/19 08:06:16;;;;;;;;;;;15.70;99.30;;;;;;5049774;28;19921;-58
2023/05/19 08:08:42;;;;;;;;;;;15.80;99.70;;;;;;5063619;28;19920;-53
2023/05/19 08:11:07;;;;;;;;;;;15.90;99.20;;;;;;5053167;28;19917;-56
2023/05/19 08:13:33;;;;;;;;;;;16.00;98.80;;;;;;5052050;28;19924;-59
2023/05/19 08:15:59;;;;;;;;;;;16.00;98.70;;;;;;5053494;28;19925;-58
2023/05/19 08:18:25;;;;;;;;;;;16.00;98.00;;;;;;5052144;28;19966;-56
2023/05/19 08:20:50;;;;;;;;;;;16.10;98.30;;;;;;5053861;28;19916;-56
2023/05/19 08:23:16;;;;;;;;;;;16.10;97.10;;;;;;5052972;28;19924;-57
2023/05/19 08:25:42;;;;;;;;;;;16.20;96.90;;;;;;5033848;28;19921;-57
2023/05/19 08:28:07;;;;;;;;;;;16.30;96.90;;;;;;5044400;28;19974;-56
2023/05/19 08:30:33;;;;;;;;;;;16.40;96.40;;;;;;5052681;28;19927;-59
2023/05/19 08:32:59;;;;;;;;;;;16.50;96.20;;;;;;5043371;28;19917;-58
2023/05/19 08:35:24;;;;;;;;;;;16.50;96.00;;;;;;5050995;28;19936;-59
2023/05/19 08:37:50;;;;;;;;;;;16.60;95.90;;;;;;5041358;28;19921;-56
2023/05/19 08:40:17;;;;;;;;;;;16.60;95.40;;;;;;5052510;28;19924;-58
2023/05/19 08:42:43;;;;;;;;;;;16.70;95.40;;;;;;5052985;28;19985;-57
2023/05/19 08:45:09;;;;;;;;;;;16.70;95.00;;;;;;5052659;28;19963;-56
2023/05/19 08:47:34;;;;;;;;;;;16.80;94.90;;;;;;5050825;28;20384;-57
2023/05/19 08:50:06;;;;;;;;;;;16.90;94.90;;;;;;5036460;28;19917;-56
2023/05/19 08:52:31;;;;;;;;;;;17.00;94.70;;;;;;5035217;28;19924;-56
2023/05/19 08:55:03;;;;;;;;;;;17.10;94.70;;;;;;5046423;28;19917;-57
2023/05/19 08:57:29;;;;;;;;;;;17.10;93.50;;;;;;5051673;28;20054;-56
2023/05/19 08:59:55;;;;;;;;;;;17.20;93.90;;;;;;5051600;28;19995;-56
2023/05/19 09:02:21;;;;;;;;;;;17.30;94.10;;;;;;5052349;28;19917;-59
2023/05/19 09:04:47;;;;;;;;;;;17.30;93.70;;;;;;5050304;28;20070;-58
2023/05/19 09:07:13;;;;;;;;;;;17.40;93.70;;;;;;5052641;28;19928;-59
2023/05/19 09:09:42;;;;;;;;;;;17.50;93.70;;;;;;5047896;28;20435;-59
2023/05/19 09:12:12;;;;;;;;;;;17.50;93.00;;;;;;5042097;28;19920;-58
2023/05/19 09:14:37;;;;;;;;;;;17.60;92.40;;;;;;5045483;28;19916;-59
2023/05/19 09:17:03;;;;;;;;;;;17.70;92.30;;;;;;5032323;28;19944;-58
2023/05/19 09:19:29;;;;;;;;;;;17.70;92.50;;;;;;5047803;28;19920;-60
2023/05/19 09:22:05;;;;;;;;;;;17.70;91.80;;;;;;5044932;28;20018;-60
2023/05/19 09:24:30;;;;;;;;;;;17.80;91.90;;;;;;5051500;28;19939;-59
2023/05/19 09:26:56;;;;;;;;;;;17.80;92.30;;;;;;5045080;28;20617;-62
2023/05/19 09:29:21;;;;;;;;;;;17.90;91.60;;;;;;5048839;28;19916;-62
2023/05/19 09:31:48;;;;;;;;;;;17.90;91.50;;;;;;5050678;28;19924;-60
2023/05/19 09:34:13;;;;;;;;;;;18.00;91.60;;;;;;5048933;28;20396;-61
2023/05/19 09:36:40;;;;;;;;;;;18.00;91.00;;;;;;5050271;28;19978;-60
2023/05/19 09:39:15;;;;;;;;;;;18.10;89.10;;;;;;5049270;28;19928;-63
2023/05/19 09:41:41;;;;;;;;;;;18.00;90.20;;;;;;5051519;28;19924;-61
2023/05/19 09:44:07;;;;;;;;;;;18.00;90.10;;;;;;5051074;28;20331;-61
2023/05/19 09:46:34;;;;;;;;;;;18.00;89.60;;;;;;5051216;28;19968;-58
2023/05/19 09:49:09;;;;;;;;;;;18.00;89.80;;;;;;5044014;28;19923;-60
2023/05/19 09:51:36;;;;;;;;;;;18.10;87.80;;;;;;5049976;28;19939;-59
2023/05/19 09:54:03;;;;;;;;;;;18.10;87.50;;;;;;5051347;28;19956;-59
2023/05/19 09:56:35;;;;;;;;;;;18.10;86.90;;;;;;5050277;28;19939;-59
2023/05/19 09:59:03;;;;;;;;;;;18.20;86.80;;;;;;5049754;28;19925;-58
2023/05/19 10:01:32;;;;;;;;;;;18.30;87.40;;;;;;5051389;28;20402;-59
2023/05/19 10:03:58;;;;;;;;;;;18.30;88.00;;;;;;5051003;28;19917;-60
2023/05/19 10:06:25;;;;;;;;;;;18.30;87.40;;;;;;5051352;28;19916;-59
2023/05/19 10:08:51;;;;;;;;;;;18.40;85.40;;;;;;5048822;28;19959;-55
2023/05/19 10:11:16;;;;;;;;;;;18.40;84.60;;;;;;5046169;28;19917;-59
2023/05/19 10:13:44;;;;;;;;;;;18.30;84.40;;;;;;5050436;28;19994;-59
2023/05/19 10:16:09;;;;;;;;;;;18.20;83.90;;;;;;5051056;28;19970;-60
2023/05/19 10:18:36;;;;;;;;;;;18.20;84.10;;;;;;5044422;28;19920;-58
2023/05/19 10:21:02;;;;;;;;;;;18.20;84.00;;;;;;5050768;28;20036;-58
2023/05/19 10:23:27;;;;;;;;;;;18.30;83.60;;;;;;5039527;28;19924;-58
2023/05/19 10:25:54;;;;;;;;;;;18.30;83.90;;;;;;5050521;28;19920;-58
2023/05/19 10:31:08;;;;;;;5.53;1.42;;;18.40;82.70;;;;;;5152361;27;20421;-57
2023/05/19 10:33:44;;;;;;;6.57;0.75;;;18.40;83.00;;;;;;5148543;27;20545;-57
2023/05/19 10:36:26;;;;;;;3.88;0.60;;;18.40;82.70;;;;;;5154260;27;20035;-57
2023/05/19 10:39:15;;;;;;;2.25;0.70;;;18.60;82.70;;;;;;5135864;27;20388;-57
2023/05/19 10:42:14;;;;;;;5.60;0.95;;;18.70;83.40;;;;;;5130870;27;20038;-58
2023/05/19 10:45:00;;;;;;;7.53;1.30;;;18.80;81.00;;;;;;5127420;27;20038;-58
2023/05/19 10:47:26;;;;;;;6.22;1.20;;;19.00;81.60;;;;;;5144840;27;20046;-57
2023/05/19 10:49:52;;;;;;;4.03;0.75;;;19.20;81.50;;;;;;5129163;27;20063;-58
2023/05/19 10:52:20;;;;;;;5.68;1.02;;;19.40;82.40;;;;;;5147748;27;20053;-58
2023/05/19 10:54:46;;;;;;;8.25;0.93;;;19.60;81.30;;;;;;5145381;27;20120;-58
2023/05/19 10:57:23;;;;;;;6.68;1.00;;;19.80;80.80;;;;;;5127518;27;20057;-58
2023/05/19 10:59:49;;;;;;;4.78;1.00;;;19.90;78.90;;;;;;5127227;27;20573;-58
2023/05/19 11:02:41;;;;;;;5.95;0.77;;;19.90;78.50;;;;;;5130027;27;20142;-58
2023/05/19 11:05:13;;;;;;;8.13;1.10;;;20.00;77.00;;;;;;5137647;27;20080;-58
2023/05/19 11:07:53;;;;;;;5.85;0.57;;;19.90;76.20;;;;;;5144076;27;20039;-58
2023/05/19 11:10:22;;;;;;;6.53;1.15;;;19.90;76.00;;;;;;5138664;27;20096;-58
2023/05/19 11:12:49;;;;;;;11.15;1.40;;;19.80;75.90;;;;;;5144974;27;20480;-58
2023/05/19 11:15:15;;;;;;;6.28;1.05;;;19.80;76.60;;;;;;5127228;27;20042;-58
2023/05/19 11:17:44;;;;;;;61.83;3.25;;;19.70;76.60;;;;;;5146384;27;20526;-58
2023/05/19 11:20:25;;;;;;;8.57;1.13;;;19.80;77.10;;;;;;5145693;27;20039;-58
2023/05/19 11:23:14;;;;;;;6.63;1.38;;;19.80;77.60;;;;;;5127303;27;20396;-58
2023/05/19 11:25:41;;;;;;;23.25;1.73;;;19.80;76.80;;;;;;5128342;27;20480;-58
2023/05/19 11:28:09;;;;;;;16.83;1.13;;;19.80;76.50;;;;;;5143721;27;20047;-59
2023/05/19 11:30:34;;;;;;;8.50;1.13;;;19.80;75.70;;;;;;5144365;27;20091;-59
2023/05/19 11:33:00;;;;;;;4.45;0.70;;;19.90;75.80;;;;;;5129366;27;20036;-59
2023/05/19 11:35:27;;;;;;;6.05;1.20;;;19.90;74.80;;;;;;5146812;27;20039;-59
2023/05/19 11:37:56;;;;;;;3.40;0.90;;;19.90;75.50;;;;;;5127255;27;20038;-59
2023/05/19 11:40:22;;;;;;;5.75;0.95;;;20.00;75.80;;;;;;5139447;27;20043;-59
2023/05/19 11:42:48;;;;;;;4.80;1.00;;;20.00;76.10;;;;;;5130365;27;20422;-59
2023/05/19 11:45:13;;;;;;;6.32;1.23;;;20.10;76.20;;;;;;5131922;27;20046;-59
2023/05/19 11:47:39;;;;;;;;;;;20.30;76.60;;;;;;5116921;27;20408;-59
2023/05/19 11:50:05;;;;;;;8.35;1.52;;;20.30;74.10;;;;;;5121368;27;19922;-59
2023/05/19 11:52:31;;;;;;;;;;;20.20;74.60;;;;;;5127797;27;20043;-59
2023/05/19 11:55:00;;;;;;;7.22;1.35;;;20.30;73.90;;;;;;5131139;27;19930;-59
2023/05/19 11:57:26;;;;;;;6.50;0.80;;;20.30;74.90;;;;;;5124854;27;20038;-57
2023/05/19 11:59:52;;;;;;;9.45;1.48;;;20.40;75.70;;;;;;5131405;27;20399;-58
2023/05/19 12:02:23;;;;;;;9.60;1.50;;;20.50;74.90;;;;;;5131282;27;20460;-54
2023/05/19 12:04:49;;;;;;;4.47;1.00;;;20.60;73.90;;;;;;5132597;27;20035;-57
2023/05/19 12:07:18;;;;;;;;;;;20.70;74.90;;;;;;5132273;27;20060;-56
2023/05/19 12:09:45;;;;;;;5.55;1.35;;;20.80;74.60;;;;;;5131256;27;19938;-58
2023/05/19 12:12:18;;;;;;;6.78;1.05;;;20.80;73.50;;;;;;5120161;27;20548;-57
2023/05/19 12:14:46;;;;;;;5.43;1.13;;;21.00;73.30;;;;;;5121214;27;20124;-56
2023/05/19 12:17:14;;;;;;;6.43;1.05;;;21.10;73.30;;;;;;5114192;27;20499;-57
2023/05/19 12:19:43;;;;;;;10.25;1.08;;;21.10;71.80;;;;;;5112517;27;20448;-58
2023/05/19 12:22:09;;;;;;;8.00;1.23;;;21.00;71.80;;;;;;5128796;27;20404;-57
2023/05/19 12:24:35;;;;;;;;;;;20.80;72.00;;;;;;5123876;27;20027;-58
2023/05/19 12:27:16;;;;;;;7.38;0.80;;;20.60;70.40;;;;;;5128706;27;19929;-57
2023/05/19 12:29:41;;;;;;;5.60;1.08;;;20.50;70.10;;;;;;5125290;27;20035;-52
2023/05/19 12:32:08;;;;;;;5.22;1.00;;;20.40;71.80;;;;;;5130359;27;20050;-54
2023/05/19 12:34:38;;;;;;;8.63;1.10;;;20.40;72.00;;;;;;5129873;27;20118;-55
2023/05/19 12:37:04;;;;;;;6.20;0.90;;;20.30;71.70;;;;;;5115265;27;20078;-55
2023/05/19 12:39:31;;;;;;;62.35;4.10;;;20.30;71.60;;;;;;5124196;27;20051;-52
2023/05/19 12:42:06;;;;;;;5.07;0.82;;;20.50;72.70;;;;;;5117843;27;20054;-52
2023/05/19 12:44:37;;;;;;;6.68;1.00;;;20.70;71.40;;;;;;5127076;27;20035;-51
2023/05/19 12:47:05;;;;;;;6.53;1.00;;;20.80;70.20;;;;;;5119640;27;20062;-53
2023/05/19 12:49:31;;;;;;;6.15;0.82;;;20.80;70.70;;;;;;5114850;27;20043;-54
2023/05/19 12:51:59;;;;;;;;;;;20.90;71.50;;;;;;5131625;27;20403;-54
2023/05/19 12:54:25;;;;;;;8.05;1.17;;;21.00;72.50;;;;;;5129977;27;19934;-55
2023/05/19 12:56:51;;;;;;;;;;;21.10;71.30;;;;;;5132568;27;20110;-52
2023/05/19 12:59:24;;;;;;;5.95;1.10;;;21.20;69.80;;;;;;5130134;27;19989;-51
2023/05/19 13:01:56;;;;;;;2.45;0.80;;;21.30;70.10;;;;;;5117775;27;20078;-55
2023/05/19 13:04:27;;;;;;;6.80;1.52;;;21.30;67.80;;;;;;5124345;27;20047;-56
2023/05/19 13:06:52;;;;;;;7.43;1.63;;;21.30;68.50;;;;;;5123425;27;20040;-51
2023/05/19 13:09:18;;;;;;;;;;;21.30;68.20;;;;;;5114780;28;20042;-50
2023/05/19 13:11:50;;;;;;;21.65;2.70;;;21.40;68.80;;;;;;5135136;27;20031;-57
2023/05/19 13:14:17;;;;;;;9.05;1.05;;;21.40;68.80;;;;;;5120821;27;20071;-51
2023/05/19 13:16:46;;;;;;;10.45;1.60;;;21.30;68.30;;;;;;5124814;27;20484;-51
2023/05/19 13:19:21;;;;;;;10.90;1.13;;;21.10;67.70;;;;;;5121569;27;20043;-54
2023/05/19 13:21:46;;;;;;;12.02;1.08;;;21.10;67.70;;;;;;5115961;27;20113;-55
2023/05/19 13:24:12;;;;;;;;;;;21.00;67.60;;;;;;5121253;27;20173;-55
2023/05/19 13:26:40;;;;;;;11.38;1.67;;;20.90;66.50;;;;;;5113760;27;19931;-53
2023/05/19 13:29:06;;;;;;;6.07;1.30;;;20.80;67.80;;;;;;5123602;27;20050;-52
2023/05/19 13:31:31;;;;;;;;;;;20.70;67.40;;;;;;5117555;27;20411;-56
2023/05/19 13:33:57;;;;;;;4.18;1.05;;;20.80;68.00;;;;;;5125281;27;19915;-55
2023/05/19 13:36:23;;;;;;;;;;;20.80;67.30;;;;;;5110163;28;20039;-53
2023/05/19 13:38:49;;;;;;;7.80;0.80;;;20.90;66.80;;;;;;5128657;27;20307;-52
2023/05/19 13:41:15;;;;;;;;;;;21.00;67.80;;;;;;5126735;27;20031;-56
2023/05/19 13:43:40;;;;;;;4.28;0.80;;;21.10;66.50;;;;;;5115304;27;19915;-51
2023/05/19 13:46:06;;;;;;;;;;;21.00;66.80;;;;;;5119683;27;20040;-53
2023/05/19 13:48:31;;;;;;;4.47;1.05;;;21.00;66.20;;;;;;5115617;27;19988;-56
2023/05/19 13:50:57;;;;;;;;;;;21.00;65.50;;;;;;5125507;27;20129;-54
2023/05/19 13:53:22;;;;;;;7.85;0.80;;;21.00;65.40;;;;;;5108821;28;19930;-52
2023/05/19 13:55:48;;;;;;;;;;;20.90;66.20;;;;;;5122248;27;20097;-53
2023/05/19 13:58:15;;;;;;;6.13;0.80;;;20.90;64.60;;;;;;5109869;28;19919;-55
2023/05/19 14:00:41;;;;;;;4.85;1.08;;;20.80;65.60;;;;;;5110084;28;20392;-59
2023/05/19 14:03:06;;;;;;;6.57;1.13;;;20.70;65.10;;;;;;5116600;27;20047;-54